Time;durP1;ratioP1;P1;durP2;ratioP2;P2;SDS_P1;SDS_P2;PMS_P1;PMS_P2;Temp;Humidity;BMP_temperature;BMP_pressure;BME280_temperature;BME280_humidity;BME280_pressure;Samples;Min_cycle;Max_cycle;Signal;HPM_P1;HPM_P2
2023/11/04 00:00:01;;;;;;;;;4.00;2.75;;;;;;;;5050579;28;9640;-83
2023/11/04 00:02:31;;;;;;;;;3.00;2.75;;;;;;;;5050299;28;9633;-83
2023/11/04 00:04:59;;;;;;;;;3.00;3.00;;;;;;;;5038554;28;9878;-83
2023/11/04 00:07:26;;;;;;;;;2.75;2.75;;;;;;;;5038431;28;9760;-82
2023/11/04 00:09:53;;;;;;;;;3.00;3.00;;;;;;;;5050535;28;9658;-83
2023/11/04 00:12:20;;;;;;;;;4.00;2.50;;;;;;;;5048977;28;9835;-82
2023/11/04 00:14:48;;;;;;;;;2.00;2.00;;;;;;;;5050417;28;9748;-84
2023/11/04 00:17:15;;;;;;;;;2.50;2.50;;;;;;;;5037559;28;9892;-82
2023/11/04 00:19:45;;;;;;;;;4.25;2.75;;;;;;;;5050359;28;9638;-82
2023/11/04 00:22:13;;;;;;;;;3.25;3.25;;;;;;;;5050193;28;9629;-84
2023/11/04 00:24:40;;;;;;;;;2.00;2.00;;;;;;;;5050784;28;9697;-82
2023/11/04 00:27:07;;;;;;;;;3.00;3.00;;;;;;;;5050629;28;9539;-81
2023/11/04 00:29:35;;;;;;;;;0.00;0.00;;;;;;;;5050990;28;9587;-84
2023/11/04 00:32:02;;;;;;;;;2.00;2.00;;;;;;;;5050675;28;9671;-83
2023/11/04 00:34:33;;;;;;;;;2.00;2.00;;;;;;;;5050730;28;9580;-83
2023/11/04 00:37:02;;;;;;;;;2.25;2.25;;;;;;;;5046717;28;9526;-82
2023/11/04 00:39:31;;;;;;;;;3.75;3.75;;;;;;;;5050741;28;9663;-82
2023/11/04 00:42:01;;;;;;;;;1.00;1.00;;;;;;;;5045365;28;9718;-82
2023/11/04 00:44:31;;;;;;;;;3.00;3.00;;;;;;;;5049630;28;9575;-82
2023/11/04 00:47:01;;;;;;;;;2.75;2.75;;;;;;;;5048826;28;9690;-82
2023/11/04 00:49:30;;;;;;;;;2.00;2.00;;;;;;;;5031907;28;9675;-82
2023/11/04 00:51:58;;;;;;;;;3.00;2.50;;;;;;;;5042611;28;9683;-84
2023/11/04 00:54:26;;;;;;;;;3.00;3.00;;;;;;;;5042100;28;9749;-82
2023/11/04 00:56:54;;;;;;;;;2.00;2.00;;;;;;;;5049011;28;9626;-83
2023/11/04 00:59:21;;;;;;;;;2.75;1.00;;;;;;;;5048526;28;9613;-83
2023/11/04 01:01:49;;;;;;;;;2.25;2.25;;;;;;;;5049086;28;9749;-83
2023/11/04 01:04:17;;;;;;;;;2.00;2.00;;;;;;;;5048360;28;9844;-82
2023/11/04 01:06:44;;;;;;;;;3.00;2.00;;;;;;;;5049301;28;9625;-83
2023/11/04 01:09:12;;;;;;;;;2.00;2.00;;;;;;;;5048384;28;9526;-82
2023/11/04 01:11:43;;;;;;;;;1.50;1.50;;;;;;;;5048649;28;9738;-84
2023/11/04 01:14:11;;;;;;;;;3.00;3.00;;;;;;;;5048620;28;9679;-83
2023/11/04 01:16:38;;;;;;;;;1.25;1.25;;;;;;;;5049049;28;9880;-82
2023/11/04 01:19:05;;;;;;;;;2.00;2.00;;;;;;;;5048871;28;9859;-82
2023/11/04 01:21:33;;;;;;;;;6.75;4.50;;;;;;;;5047885;28;9706;-82
2023/11/04 01:24:00;;;;;;;;;2.00;2.00;;;;;;;;5049551;28;9981;-82
2023/11/04 01:26:27;;;;;;;;;3.50;3.50;;;;;;;;5049053;28;9743;-83
2023/11/04 01:28:56;;;;;;;;;2.50;2.50;;;;;;;;5046917;28;9753;-83
2023/11/04 01:31:26;;;;;;;;;2.00;1.25;;;;;;;;5048422;28;9752;-83
2023/11/04 01:33:53;;;;;;;;;4.00;3.00;;;;;;;;5036476;28;10473;-82
2023/11/04 01:36:20;;;;;;;;;3.00;3.00;;;;;;;;5037844;28;9622;-81
2023/11/04 01:38:48;;;;;;;;;2.00;2.00;;;;;;;;5047907;28;9749;-82
2023/11/04 01:41:15;;;;;;;;;2.25;2.25;;;;;;;;5049119;28;9630;-82
2023/11/04 01:43:42;;;;;;;;;4.25;3.00;;;;;;;;5031331;28;9823;-83
2023/11/04 01:46:19;;;;;;;;;2.75;2.75;;;;;;;;5049907;28;9780;-82
2023/11/04 01:48:47;;;;;;;;;4.50;2.75;;;;;;;;5030379;28;9827;-83
2023/11/04 01:51:15;;;;;;;;;5.00;3.00;;;;;;;;5073048;28;9729;-83
2023/11/04 01:53:44;;;;;;;;;2.50;2.00;;;;;;;;5072554;28;9779;-83
2023/11/04 01:56:13;;;;;;;;;3.50;3.50;;;;;;;;5050362;28;9783;-84
2023/11/04 01:58:46;;;;;;;;;3.25;3.25;;;;;;;;5044030;28;9768;-83
2023/11/04 02:01:14;;;;;;;;;4.50;3.50;;;;;;;;5045924;28;9755;-83
2023/11/04 02:03:43;;;;;;;;;4.00;3.00;;;;;;;;5022600;28;9912;-83
2023/11/04 02:06:10;;;;;;;;;3.75;2.75;;;;;;;;5049099;28;9846;-83
2023/11/04 02:08:37;;;;;;;;;2.00;2.00;;;;;;;;5049194;28;9946;-82
2023/11/04 02:11:10;;;;;;;;;4.00;4.00;;;;;;;;5050528;28;9977;-84
2023/11/04 02:13:38;;;;;;;;;2.25;2.25;;;;;;;;5053763;28;10088;-84
2023/11/04 02:16:07;;;;;;;;;1.00;1.00;;;;;;;;5054657;28;10633;-83
2023/11/04 02:18:34;;;;;;;;;3.00;3.00;;;;;;;;5063201;28;9974;-82
2023/11/04 02:21:05;;;;;;;;;2.00;2.00;;;;;;;;5063790;28;9948;-82
2023/11/04 02:23:32;;;;;;;;;3.25;3.25;;;;;;;;5057116;28;10001;-83
2023/11/04 02:26:02;;;;;;;;;3.00;3.00;;;;;;;;5054114;28;9982;-83
2023/11/04 02:28:29;;;;;;;;;2.00;2.00;;;;;;;;5054775;28;9880;-83
2023/11/04 02:30:56;;;;;;;;;3.00;1.75;;;;;;;;5059260;28;9988;-83
2023/11/04 02:33:24;;;;;;;;;3.00;1.00;;;;;;;;5052179;28;9799;-83
2023/11/04 02:35:51;;;;;;;;;2.50;2.50;;;;;;;;5044825;28;9916;-82
2023/11/04 02:38:22;;;;;;;;;2.00;2.00;;;;;;;;5041364;28;9868;-82
2023/11/04 02:40:49;;;;;;;;;5.00;3.75;;;;;;;;5047189;28;9936;-82
2023/11/04 02:43:19;;;;;;;;;3.00;3.00;;;;;;;;5039203;28;9857;-82
2023/11/04 02:45:46;;;;;;;;;2.75;2.50;;;;;;;;5042986;28;9942;-82
2023/11/04 02:48:13;;;;;;;;;4.00;3.00;;;;;;;;5051616;28;9849;-83
2023/11/04 02:50:40;;;;;;;;;6.00;4.75;;;;;;;;5050906;28;9868;-83
2023/11/04 02:53:08;;;;;;;;;3.00;3.00;;;;;;;;5023008;28;10036;-82
2023/11/04 02:55:37;;;;;;;;;4.00;4.00;;;;;;;;5036106;28;10118;-81
2023/11/04 02:58:04;;;;;;;;;5.50;3.00;;;;;;;;5051511;28;9884;-83
2023/11/04 03:00:31;;;;;;;;;3.50;3.00;;;;;;;;5051578;28;9930;-83
2023/11/04 03:02:59;;;;;;;;;5.00;3.25;;;;;;;;5051515;28;10021;-83
2023/11/04 03:05:26;;;;;;;;;5.00;3.00;;;;;;;;5049806;28;9985;-83
2023/11/04 03:07:53;;;;;;;;;3.00;3.00;;;;;;;;5041127;28;9937;-84
2023/11/04 03:10:21;;;;;;;;;2.00;2.00;;;;;;;;5048447;28;10151;-83
2023/11/04 03:12:49;;;;;;;;;3.00;3.00;;;;;;;;5034289;28;9936;-83
2023/11/04 03:15:20;;;;;;;;;5.00;4.25;;;;;;;;5050978;28;10020;-83
2023/11/04 03:17:50;;;;;;;;;2.50;2.50;;;;;;;;5050832;28;9934;-82
2023/11/04 03:20:19;;;;;;;;;5.00;3.25;;;;;;;;5051055;28;10019;-83
2023/11/04 03:22:46;;;;;;;;;3.50;3.50;;;;;;;;5050295;28;10074;-82
2023/11/04 03:25:15;;;;;;;;;4.75;3.50;;;;;;;;5050408;28;9836;-82
2023/11/04 03:27:42;;;;;;;;;6.75;5.00;;;;;;;;5050896;28;10008;-83
2023/11/04 03:30:11;;;;;;;;;6.50;3.00;;;;;;;;5050852;28;9994;-83
2023/11/04 03:32:38;;;;;;;;;4.50;4.00;;;;;;;;5050179;28;9999;-81
2023/11/04 03:35:09;;;;;;;;;4.00;4.00;;;;;;;;5050894;28;10134;-79
2023/11/04 03:37:36;;;;;;;;;3.75;2.75;;;;;;;;5050210;28;10092;-83
2023/11/04 03:40:04;;;;;;;;;3.25;3.25;;;;;;;;5051244;28;10065;-83
2023/11/04 03:42:36;;;;;;;;;4.00;4.00;;;;;;;;5049858;28;10063;-83
2023/11/04 03:45:04;;;;;;;;;2.50;2.50;;;;;;;;5050520;28;10248;-83
2023/11/04 03:47:33;;;;;;;;;3.50;3.50;;;;;;;;5051355;28;10162;-83
2023/11/04 03:50:00;;;;;;;;;4.00;4.00;;;;;;;;5050383;28;10366;-81
2023/11/04 03:52:27;;;;;;;;;6.00;4.00;;;;;;;;5038778;28;10227;-83
2023/11/04 03:54:55;;;;;;;;;5.50;5.50;;;;;;;;5050195;28;10229;-83
2023/11/04 03:57:22;;;;;;;;;3.75;3.75;;;;;;;;5050730;28;10394;-83
2023/11/04 03:59:49;;;;;;;;;4.50;4.00;;;;;;;;5050334;28;10279;-82
2023/11/04 04:02:17;;;;;;;;;5.50;3.50;;;;;;;;5050475;28;10262;-82
2023/11/04 04:04:46;;;;;;;;;3.25;3.25;;;;;;;;5050428;28;10242;-82
2023/11/04 04:07:13;;;;;;;;;3.00;3.00;;;;;;;;5051037;28;10226;-83
2023/11/04 04:09:40;;;;;;;;;6.00;4.00;;;;;;;;5050613;28;10307;-83
2023/11/04 04:12:08;;;;;;;;;2.00;2.00;;;;;;;;5050708;28;10462;-81
2023/11/04 04:14:44;;;;;;;;;4.00;3.25;;;;;;;;5033433;28;10140;-83
2023/11/04 04:17:11;;;;;;;;;6.25;4.00;;;;;;;;5051256;28;10255;-84
2023/11/04 04:19:41;;;;;;;;;4.50;4.50;;;;;;;;5051297;28;10261;-84
2023/11/04 04:22:12;;;;;;;;;2.75;2.75;;;;;;;;5032516;28;10252;-83
2023/11/04 04:24:39;;;;;;;;;9.50;4.25;;;;;;;;5043250;28;10116;-82
2023/11/04 04:27:07;;;;;;;;;3.50;3.50;;;;;;;;5043795;28;10164;-82
2023/11/04 04:29:37;;;;;;;;;5.50;3.75;;;;;;;;5037969;28;10084;-83
2023/11/04 04:32:05;;;;;;;;;1.50;1.50;;;;;;;;5050140;28;10296;-83
2023/11/04 04:34:34;;;;;;;;;2.00;2.00;;;;;;;;5050479;28;10247;-82
2023/11/04 04:37:02;;;;;;;;;3.50;3.50;;;;;;;;5058929;28;10137;-83
2023/11/04 04:39:33;;;;;;;;;2.00;2.00;;;;;;;;5074603;28;10244;-82
2023/11/04 04:42:03;;;;;;;;;5.00;3.00;;;;;;;;5074237;28;10136;-83
2023/11/04 04:44:31;;;;;;;;;3.50;3.00;;;;;;;;5070542;28;10151;-82
2023/11/04 04:47:00;;;;;;;;;5.25;3.00;;;;;;;;5055773;28;10139;-82
2023/11/04 04:49:27;;;;;;;;;4.75;1.50;;;;;;;;5050191;28;10023;-83
2023/11/04 04:51:55;;;;;;;;;7.25;3.00;;;;;;;;5049095;28;10071;-82
2023/11/04 04:54:22;;;;;;;;;3.50;3.50;;;;;;;;5049561;28;10108;-84
2023/11/04 04:56:52;;;;;;;;;5.00;5.00;;;;;;;;5048310;28;10037;-82
2023/11/04 04:59:22;;;;;;;;;5.75;3.50;;;;;;;;5046072;28;10007;-82
2023/11/04 05:01:49;;;;;;;;;3.75;3.75;;;;;;;;5048835;28;10170;-83
2023/11/04 05:04:16;;;;;;;;;0.00;0.00;;;;;;;;5048510;28;10106;-82
2023/11/04 05:06:44;;;;;;;;;5.75;3.00;;;;;;;;5043644;28;9925;-82
2023/11/04 05:09:11;;;;;;;;;2.00;2.00;;;;;;;;5040581;28;10076;-83
2023/11/04 05:11:38;;;;;;;;;3.50;2.00;;;;;;;;5048248;28;10491;-83
2023/11/04 05:14:07;;;;;;;;;3.25;2.00;;;;;;;;5048508;28;10096;-82
2023/11/04 05:16:40;;;;;;;;;4.00;3.25;;;;;;;;5048915;28;10092;-82
2023/11/04 05:19:07;;;;;;;;;3.00;3.00;;;;;;;;5048605;28;9992;-82
2023/11/04 05:21:35;;;;;;;;;2.50;2.50;;;;;;;;5048621;28;10218;-83
2023/11/04 05:24:02;;;;;;;;;3.00;3.00;;;;;;;;5048709;28;9891;-82
2023/11/04 05:26:29;;;;;;;;;3.00;3.00;;;;;;;;5048343;28;10053;-83
2023/11/04 05:28:57;;;;;;;;;4.75;3.25;;;;;;;;5048048;28;10044;-83
2023/11/04 05:31:25;;;;;;;;;0.50;0.50;;;;;;;;5048364;28;10799;-82
2023/11/04 05:33:53;;;;;;;;;3.50;2.25;;;;;;;;5038506;28;9694;-83
2023/11/04 05:36:21;;;;;;;;;3.00;3.00;;;;;;;;5048567;28;9876;-82
2023/11/04 05:38:49;;;;;;;;;2.25;2.25;;;;;;;;5048346;28;9928;-82
2023/11/04 05:41:16;;;;;;;;;2.00;2.00;;;;;;;;5048734;28;9949;-82
2023/11/04 05:43:44;;;;;;;;;2.00;2.00;;;;;;;;5048218;28;10013;-83
2023/11/04 05:46:11;;;;;;;;;1.75;1.00;;;;;;;;5043719;28;9791;-83
2023/11/04 05:48:40;;;;;;;;;1.50;1.50;;;;;;;;5048151;28;9859;-82
2023/11/04 05:51:07;;;;;;;;;1.75;1.75;;;;;;;;5052479;28;9878;-82
2023/11/04 05:53:34;;;;;;;;;3.75;2.00;;;;;;;;5052754;28;9855;-82
2023/11/04 05:56:03;;;;;;;;;2.00;0.75;;;;;;;;5053823;28;9781;-84
2023/11/04 05:58:30;;;;;;;;;0.75;0.75;;;;;;;;5048121;28;9718;-83
2023/11/04 06:00:57;;;;;;;;;1.50;1.50;;;;;;;;5053437;28;9619;-81
2023/11/04 06:03:25;;;;;;;;;2.00;2.00;;;;;;;;5052900;28;9934;-83
2023/11/04 06:05:55;;;;;;;;;2.25;1.25;;;;;;;;5035484;28;9702;-83
2023/11/04 06:08:23;;;;;;;;;1.25;1.25;;;;;;;;5036013;28;9538;-83
2023/11/04 06:10:50;;;;;;;;;2.00;2.00;;;;;;;;5043883;28;9840;-82
2023/11/04 06:13:17;;;;;;;;;2.00;2.00;;;;;;;;5047048;28;9701;-85
2023/11/04 06:15:50;;;;;;;;;2.00;2.00;;;;;;;;5045163;28;9610;-85
2023/11/04 06:18:17;;;;;;;;;0.50;0.50;;;;;;;;5039337;28;9822;-83
2023/11/04 06:20:48;;;;;;;;;1.50;1.50;;;;;;;;5038395;28;9605;-84
2023/11/04 06:23:22;;;;;;;;;2.00;2.00;;;;;;;;5040259;28;9641;-84
2023/11/04 06:25:51;;;;;;;;;2.00;1.00;;;;;;;;5038109;28;9751;-81
2023/11/04 06:28:21;;;;;;;;;2.50;1.00;;;;;;;;5051575;28;9846;-82
2023/11/04 06:30:48;;;;;;;;;1.50;1.00;;;;;;;;5050596;28;9677;-81
2023/11/04 06:33:20;;;;;;;;;0.50;0.50;;;;;;;;5051577;28;9791;-81
2023/11/04 06:35:47;;;;;;;;;1.00;1.00;;;;;;;;5051004;28;9691;-81
2023/11/04 06:38:14;;;;;;;;;0.50;0.50;;;;;;;;5051640;28;9856;-82
2023/11/04 06:40:46;;;;;;;;;2.25;0.75;;;;;;;;5050836;28;9600;-83
2023/11/04 06:43:14;;;;;;;;;1.00;1.00;;;;;;;;5039303;28;9758;-82
2023/11/04 06:45:43;;;;;;;;;2.50;1.00;;;;;;;;5045574;28;9646;-82
2023/11/04 06:48:10;;;;;;;;;1.00;1.00;;;;;;;;5044039;28;9788;-82
2023/11/04 06:50:38;;;;;;;;;1.00;1.00;;;;;;;;5050435;28;9771;-80
2023/11/04 06:53:05;;;;;;;;;1.00;1.00;;;;;;;;5051247;28;9636;-83
2023/11/04 06:55:35;;;;;;;;;2.00;0.75;;;;;;;;5050314;28;9763;-82
2023/11/04 06:58:04;;;;;;;;;1.00;1.00;;;;;;;;5050594;28;9739;-81
2023/11/04 07:00:31;;;;;;;;;3.00;1.00;;;;;;;;5050852;28;9712;-82
2023/11/04 07:02:59;;;;;;;;;1.00;1.00;;;;;;;;5050872;28;9629;-81
2023/11/04 07:05:26;;;;;;;;;0.00;0.00;;;;;;;;5051381;28;9926;-81
2023/11/04 07:07:53;;;;;;;;;1.25;1.25;;;;;;;;5050890;28;9554;-81
2023/11/04 07:10:24;;;;;;;;;2.00;2.00;;;;;;;;5044463;28;9781;-83
2023/11/04 07:12:51;;;;;;;;;1.00;1.00;;;;;;;;5046989;28;9779;-82
2023/11/04 07:15:20;;;;;;;;;0.00;0.00;;;;;;;;5056204;28;9830;-82
2023/11/04 07:17:47;;;;;;;;;1.00;1.00;;;;;;;;5072204;28;9906;-84
2023/11/04 07:20:14;;;;;;;;;2.00;0.50;;;;;;;;5056464;28;9831;-81
2023/11/04 07:22:43;;;;;;;;;2.50;1.00;;;;;;;;5051867;28;9601;-83
2023/11/04 07:25:12;;;;;;;;;2.50;0.75;;;;;;;;5051433;28;9865;-84
2023/11/04 07:27:39;;;;;;;;;0.50;0.00;;;;;;;;5057847;28;9686;-82
2023/11/04 07:30:08;;;;;;;;;0.75;0.00;;;;;;;;5073802;28;9585;-82
2023/11/04 07:32:39;;;;;;;;;0.50;0.50;;;;;;;;5072753;28;9584;-83
2023/11/04 07:35:10;;;;;;;;;1.00;1.00;;;;;;;;5060876;28;9734;-82
2023/11/04 07:37:39;;;;;;;;;0.00;0.00;;;;;;;;5052645;28;9577;-83
2023/11/04 07:40:13;;;;;;;;;1.50;0.00;;;;;;;;5053423;28;9528;-79
2023/11/04 07:42:41;;;;;;;;;1.00;0.00;;;;;;;;5053533;28;9607;-85
2023/11/04 07:45:13;;;;;;;;;0.75;0.75;;;;;;;;5053461;28;9532;-80
2023/11/04 07:47:45;;;;;;;;;1.00;1.00;;;;;;;;5053365;28;9622;-77
2023/11/04 07:50:12;;;;;;;;;1.00;1.00;;;;;;;;5051085;28;9552;-83
2023/11/04 07:52:41;;;;;;;;;0.00;0.00;;;;;;;;5054662;28;9604;-76
2023/11/04 07:55:08;;;;;;;;;2.50;1.50;;;;;;;;5051237;28;9531;-80
2023/11/04 07:57:37;;;;;;;;;2.50;0.00;;;;;;;;5050265;28;9689;-79
2023/11/04 08:00:08;;;;;;;;;1.00;1.00;;;;;;;;5048511;28;9590;-80
2023/11/04 08:02:42;;;;;;;;;2.00;1.00;;;;;;;;5049746;28;9755;-80
2023/11/04 08:05:11;;;;;;;;;1.00;1.00;;;;;;;;5049466;28;9508;-77
2023/11/04 08:07:39;;;;;;;;;1.00;1.00;;;;;;;;5050338;28;9679;-81
2023/11/04 08:10:08;;;;;;;;;0.00;0.00;;;;;;;;5041618;28;9607;-79
2023/11/04 08:12:36;;;;;;;;;0.75;0.75;;;;;;;;5050284;28;9633;-80
2023/11/04 08:15:05;;;;;;;;;0.00;0.00;;;;;;;;5049374;28;9713;-78
2023/11/04 08:17:33;;;;;;;;;1.00;1.00;;;;;;;;5049647;28;9638;-74
2023/11/04 08:20:03;;;;;;;;;1.75;1.00;;;;;;;;5044661;28;9470;-79
2023/11/04 08:22:32;;;;;;;;;1.25;1.00;;;;;;;;5038283;28;9670;-77
2023/11/04 08:25:00;;;;;;;;;2.50;0.00;;;;;;;;5050428;28;9608;-79
2023/11/04 08:27:27;;;;;;;;;4.00;1.00;;;;;;;;5049165;28;9540;-79
2023/11/04 08:29:58;;;;;;;;;0.00;0.00;;;;;;;;5049944;28;9525;-82
2023/11/04 08:32:26;;;;;;;;;2.00;0.00;;;;;;;;5049137;28;9483;-80
2023/11/04 08:34:54;;;;;;;;;1.25;0.75;;;;;;;;5048962;28;10448;-79
2023/11/04 08:37:23;;;;;;;;;0.00;0.00;;;;;;;;5049504;28;9733;-77
2023/11/04 08:39:52;;;;;;;;;0.00;0.00;;;;;;;;5049168;28;9812;-76
2023/11/04 08:42:20;;;;;;;;;0.00;0.00;;;;;;;;5048849;28;9733;-79
2023/11/04 08:44:47;;;;;;;;;0.00;0.00;;;;;;;;5048633;28;9536;-78
2023/11/04 08:47:14;;;;;;;;;0.00;0.00;;;;;;;;5036025;28;9540;-78
2023/11/04 08:49:41;;;;;;;;;1.25;0.00;;;;;;;;5048531;28;9605;-78
2023/11/04 08:52:09;;;;;;;;;0.00;0.00;;;;;;;;5049036;28;9597;-82
2023/11/04 08:54:37;;;;;;;;;0.50;0.00;;;;;;;;5049033;28;9886;-79
2023/11/04 08:57:06;;;;;;;;;1.00;1.00;;;;;;;;5048899;28;9498;-79
2023/11/04 08:59:33;;;;;;;;;1.00;0.00;;;;;;;;5049017;28;9534;-80
2023/11/04 09:02:00;;;;;;;;;0.00;0.00;;;;;;;;5048892;28;10031;-85
2023/11/04 09:04:29;;;;;;;;;2.00;1.00;;;;;;;;5049460;28;9628;-83
2023/11/04 09:06:56;;;;;;;;;2.00;0.00;;;;;;;;5049037;28;9458;-81
2023/11/04 09:09:23;;;;;;;;;0.00;0.00;;;;;;;;5049073;28;9543;-79
2023/11/04 09:11:52;;;;;;;;;0.00;0.00;;;;;;;;5048981;28;9482;-81
2023/11/04 09:14:20;;;;;;;;;0.00;0.00;;;;;;;;5043236;28;9610;-83
2023/11/04 09:16:49;;;;;;;;;0.25;0.25;;;;;;;;5043063;28;9606;-81
2023/11/04 09:19:16;;;;;;;;;0.00;0.00;;;;;;;;5048902;28;9642;-79
2023/11/04 09:21:43;;;;;;;;;0.00;0.00;;;;;;;;5050958;28;9618;-82
2023/11/04 09:24:11;;;;;;;;;0.00;0.00;;;;;;;;5052556;28;9501;-81
2023/11/04 09:26:38;;;;;;;;;0.00;0.00;;;;;;;;5054717;28;9384;-79
2023/11/04 09:29:07;;;;;;;;;0.00;0.00;;;;;;;;5055282;28;9460;-79
2023/11/04 09:31:37;;;;;;;;;0.00;0.00;;;;;;;;5047836;28;9401;-78
2023/11/04 09:34:05;;;;;;;;;0.00;0.00;;;;;;;;5055035;28;9388;-78
2023/11/04 09:36:32;;;;;;;;;0.00;0.00;;;;;;;;5053989;28;10246;-77
2023/11/04 09:39:03;;;;;;;;;1.00;0.00;;;;;;;;5058893;28;9581;-75
2023/11/04 09:41:31;;;;;;;;;3.00;0.00;;;;;;;;5048005;28;9410;-78
2023/11/04 09:43:58;;;;;;;;;0.00;0.00;;;;;;;;5049351;28;9405;-81
2023/11/04 09:46:25;;;;;;;;;0.00;0.00;;;;;;;;5050975;28;9459;-77
2023/11/04 09:48:54;;;;;;;;;0.00;0.00;;;;;;;;5050653;28;9307;-79
2023/11/04 09:51:23;;;;;;;;;0.00;0.00;;;;;;;;5049655;28;9297;-79
2023/11/04 09:53:54;;;;;;;;;0.00;0.00;;;;;;;;5048067;28;10164;-77
2023/11/04 09:56:22;;;;;;;;;0.00;0.00;;;;;;;;5047777;28;9403;-78
2023/11/04 09:58:50;;;;;;;;;0.00;0.00;;;;;;;;5048419;28;9338;-81
2023/11/04 10:01:18;;;;;;;;;0.00;0.00;;;;;;;;5048044;28;9374;-78
2023/11/04 10:03:46;;;;;;;;;0.00;0.00;;;;;;;;5036022;28;9311;-81
2023/11/04 10:06:15;;;;;;;;;0.00;0.00;;;;;;;;5047730;28;9391;-80
2023/11/04 10:08:43;;;;;;;;;0.67;0.00;;;;;;;;5048295;28;9371;-76
2023/11/04 10:11:10;;;;;;;;;0.00;0.00;;;;;;;;5048649;28;9403;-79
2023/11/04 10:13:39;;;;;;;;;0.00;0.00;;;;;;;;5048598;28;9239;-77
2023/11/04 10:16:07;;;;;;;;;0.00;0.00;;;;;;;;5048611;28;9325;-80
2023/11/04 10:18:34;;;;;;;;;0.00;0.00;;;;;;;;5056721;28;9311;-75
2023/11/04 10:21:06;;;;;;;;;0.00;0.00;;;;;;;;5072117;28;9305;-78
2023/11/04 10:23:34;;;;;;;;;0.00;0.00;;;;;;;;5071491;28;9364;-77
2023/11/04 10:26:05;;;;;;;;;0.00;0.00;;;;;;;;5052291;28;9229;-82
2023/11/04 10:28:35;;;;;;;;;0.00;0.00;;;;;;;;5048798;28;9085;-80
2023/11/04 10:31:04;;;;;;;;;0.00;0.00;;;;;;;;5048372;28;9252;-81
2023/11/04 10:33:36;;;;;;;;;0.00;0.00;;;;;;;;5026782;28;9224;-78
2023/11/04 10:36:08;;;;;;;;;0.00;0.00;;;;;;;;5052083;28;9249;-77
2023/11/04 10:38:37;;;;;;;;;0.00;0.00;;;;;;;;5050767;28;9178;-81
2023/11/04 10:41:06;;;;;;;;;0.00;0.00;;;;;;;;5044859;28;9191;-80
2023/11/04 10:43:53;;;;;;;;;0.00;0.00;;;;;;;;5051645;28;9083;-79
2023/11/04 10:46:28;;;;;;;;;0.00;0.00;;;;;;;;5042252;28;9265;-85
2023/11/04 10:49:00;;;;;;;;;0.00;0.00;;;;;;;;5049977;28;8920;-81
2023/11/04 10:51:33;;;;;;;;;0.00;0.00;;;;;;;;5051920;28;9853;-81
2023/11/04 10:54:16;;;;;;;;;0.00;0.00;;;;;;;;5038590;28;9040;-78
2023/11/04 10:56:45;;;;;;;;;1.33;0.00;;;;;;;;5050545;28;9872;-81
2023/11/04 10:59:17;;;;;;;;;0.00;0.00;;;;;;;;5051940;28;8980;-78
2023/11/04 11:01:45;;;;;;;;;0.00;0.00;;;;;;;;5038474;28;8913;-78
2023/11/04 11:04:13;;;;;;;;;0.00;0.00;;;;;;;;5051725;28;9731;-80
2023/11/04 11:06:41;;;;;;;;;0.75;0.75;;;;;;;;5052366;28;9018;-80
2023/11/04 11:09:19;;;;;;;;;0.00;0.00;;;;;;;;5053277;28;8878;-80
2023/11/04 11:11:54;;;;;;;;;0.00;0.00;;;;;;;;5054809;28;8962;-81
2023/11/04 11:14:22;;;;;;;;;0.00;0.00;;;;;;;;5054230;28;8891;-86
2023/11/04 11:17:00;;;;;;;;;0.75;0.75;;;;;;;;5055653;28;8844;-79
2023/11/04 11:19:27;;;;;;;;;0.75;0.75;;;;;;;;5056466;28;8867;-84
2023/11/04 11:21:55;;;;;;;;;0.75;0.50;;;;;;;;5055991;28;8893;-86
2023/11/04 11:24:26;;;;;;;;;0.00;0.00;;;;;;;;5052497;28;9679;-82
2023/11/04 11:27:00;;;;;;;;;0.50;0.00;;;;;;;;5051775;28;8977;-80
2023/11/04 11:29:29;;;;;;;;;0.25;0.25;;;;;;;;5051448;28;8894;-79
2023/11/04 11:32:08;;;;;;;;;1.00;1.00;;;;;;;;5052938;28;8848;-76
2023/11/04 11:34:35;;;;;;;;;0.00;0.00;;;;;;;;5051699;28;8840;-77
2023/11/04 11:37:02;;;;;;;;;1.75;1.75;;;;;;;;5050010;28;9180;-77
2023/11/04 11:39:35;;;;;;;;;0.00;0.00;;;;;;;;5039399;28;9620;-77
2023/11/04 11:42:03;;;;;;;;;1.00;1.00;;;;;;;;5050003;28;8958;-76
2023/11/04 11:44:30;;;;;;;;;2.00;2.00;;;;;;;;5050004;28;8868;-75
2023/11/04 11:46:57;;;;;;;;;0.00;0.00;;;;;;;;5039385;28;8851;-80
2023/11/04 11:49:25;;;;;;;;;2.00;1.00;;;;;;;;5053988;28;8847;-80
2023/11/04 11:51:52;;;;;;;;;0.00;0.00;;;;;;;;5050225;28;8863;-77
2023/11/04 11:54:19;;;;;;;;;1.00;1.00;;;;;;;;5049773;28;8863;-75
2023/11/04 11:56:48;;;;;;;;;0.00;0.00;;;;;;;;5048737;28;8934;-75
2023/11/04 11:59:15;;;;;;;;;0.25;0.00;;;;;;;;5032430;28;8840;-75
2023/11/04 12:01:43;;;;;;;;;0.00;0.00;;;;;;;;5049302;28;9583;-75
2023/11/04 12:04:10;;;;;;;;;0.50;0.25;;;;;;;;5050067;28;8848;-77
2023/11/04 12:06:40;;;;;;;;;0.00;0.00;;;;;;;;5050062;28;9662;-75
2023/11/04 12:09:10;;;;;;;;;3.00;1.00;;;;;;;;5049595;28;8892;-75
2023/11/04 12:11:41;;;;;;;;;2.50;1.00;;;;;;;;5049128;28;9738;-75
2023/11/04 12:14:10;;;;;;;;;6.00;6.00;;;;;;;;5050087;28;8860;-86
2023/11/04 12:16:37;;;;;;;;;0.00;0.00;;;;;;;;5049299;28;8832;-78
2023/11/04 12:19:05;;;;;;;;;0.25;0.25;;;;;;;;5050083;28;8878;-76
2023/11/04 12:21:33;;;;;;;;;0.50;0.25;;;;;;;;5036541;28;9623;-75
2023/11/04 12:24:06;;;;;;;;;0.00;0.00;;;;;;;;5049265;28;8853;-79
2023/11/04 12:26:35;;;;;;;;;1.00;1.00;;;;;;;;5049455;28;8844;-79
2023/11/04 12:29:02;;;;;;;;;0.25;0.25;;;;;;;;5049323;28;8844;-78
2023/11/04 12:31:30;;;;;;;;;1.00;1.00;;;;;;;;5049088;28;8872;-76
2023/11/04 12:33:58;;;;;;;;;1.00;1.00;;;;;;;;5048966;28;8892;-76
2023/11/04 12:36:28;;;;;;;;;1.00;1.00;;;;;;;;5049663;28;8963;-76
2023/11/04 12:38:55;;;;;;;;;1.50;1.00;;;;;;;;5050385;28;8824;-88
2023/11/04 12:41:23;;;;;;;;;2.00;2.00;;;;;;;;5050352;28;8832;-84
2023/11/04 12:43:51;;;;;;;;;3.00;1.50;;;;;;;;5050046;28;8837;-80
2023/11/04 12:46:18;;;;;;;;;1.75;1.75;;;;;;;;5040943;28;8868;-76
2023/11/04 12:48:47;;;;;;;;;2.00;2.00;;;;;;;;5046392;28;8867;-77
2023/11/04 12:51:14;;;;;;;;;4.50;2.00;;;;;;;;5051006;28;8836;-75
2023/11/04 12:53:42;;;;;;;;;3.75;2.75;;;;;;;;5051657;28;8844;-80
2023/11/04 12:56:09;;;;;;;;;7.00;2.00;;;;;;;;5052836;28;8891;-77
2023/11/04 12:58:38;;;;;;;;;3.50;2.50;;;;;;;;5053482;28;8855;-74
2023/11/04 13:01:08;;;;;;;;;2.50;1.25;;;;;;;;5054732;28;8867;-78
2023/11/04 13:03:35;;;;;;;;;3.00;3.00;;;;;;;;5053438;28;8898;-75
2023/11/04 13:06:06;;;;;;;;;3.75;3.00;;;;;;;;5059921;28;8832;-71
2023/11/04 13:08:34;;;;;;;;;2.00;2.00;;;;;;;;5048576;28;8836;-77
2023/11/04 13:11:01;;;;;;;;;4.00;3.00;;;;;;;;5050192;28;8921;-78
2023/11/04 13:13:37;;;;;;;;;2.50;2.50;;;;;;;;5050258;28;8856;-73
2023/11/04 13:16:05;;;;;;;;;4.00;3.00;;;;;;;;5047215;28;8840;-78
2023/11/04 13:18:32;;;;;;;;;6.50;3.75;;;;;;;;5048367;28;8840;-75
2023/11/04 13:20:59;;;;;;;;;5.00;3.00;;;;;;;;5048074;28;8878;-75
2023/11/04 13:23:30;;;;;;;;;6.00;3.50;;;;;;;;5047960;28;8828;-75
2023/11/04 13:25:57;;;;;;;;;6.50;4.00;;;;;;;;5047621;28;8825;-75
2023/11/04 13:28:25;;;;;;;;;6.00;4.00;;;;;;;;5047581;28;8837;-75
2023/11/04 13:30:52;;;;;;;;;2.50;2.50;;;;;;;;5047711;28;8856;-75
2023/11/04 13:33:19;;;;;;;;;4.50;2.25;;;;;;;;5048007;28;8850;-77
2023/11/04 13:35:47;;;;;;;;;2.75;2.00;;;;;;;;5047488;28;9641;-76
2023/11/04 13:38:15;;;;;;;;;5.50;3.00;;;;;;;;5048126;28;9587;-76
2023/11/04 13:40:44;;;;;;;;;6.75;2.75;;;;;;;;5048049;28;8859;-76
2023/11/04 13:43:11;;;;;;;;;4.50;2.00;;;;;;;;5047702;28;8868;-76
2023/11/04 13:45:38;;;;;;;;;3.50;3.00;;;;;;;;5043474;28;8876;-75
2023/11/04 13:48:08;;;;;;;;;3.50;2.00;;;;;;;;5037586;28;8870;-78
2023/11/04 13:50:35;;;;;;;;;5.50;3.75;;;;;;;;5047583;28;8852;-74
2023/11/04 13:53:03;;;;;;;;;1.75;1.00;;;;;;;;5046782;28;9003;-77
2023/11/04 13:55:31;;;;;;;;;3.50;3.25;;;;;;;;5047351;28;8852;-77
2023/11/04 13:58:01;;;;;;;;;2.75;2.00;;;;;;;;5047446;28;9626;-75
2023/11/04 14:00:35;;;;;;;;;0.50;0.25;;;;;;;;5047538;28;8856;-76
2023/11/04 14:03:02;;;;;;;;;3.00;1.25;;;;;;;;5048096;28;8858;-76
2023/11/04 14:05:29;;;;;;;;;1.75;1.75;;;;;;;;5047964;28;8836;-77
2023/11/04 14:07:56;;;;;;;;;1.00;1.00;;;;;;;;5050067;28;8848;-77
2023/11/04 14:10:26;;;;;;;;;1.50;1.25;;;;;;;;5051494;28;8848;-73
2023/11/04 14:12:54;;;;;;;;;1.00;1.00;;;;;;;;5051252;28;8832;-78
2023/11/04 14:15:22;;;;;;;;;0.25;0.25;;;;;;;;5051243;28;8848;-76
2023/11/04 14:17:49;;;;;;;;;1.00;1.00;;;;;;;;5050802;28;8893;-77
2023/11/04 14:20:17;;;;;;;;;2.50;1.00;;;;;;;;5051927;28;8878;-80
2023/11/04 14:22:44;;;;;;;;;1.25;1.00;;;;;;;;5051207;28;8848;-77
2023/11/04 14:25:11;;;;;;;;;1.00;1.00;;;;;;;;5052381;28;8852;-76
2023/11/04 14:27:39;;;;;;;;;3.25;0.50;;;;;;;;5056539;28;8955;-77
2023/11/04 14:30:07;;;;;;;;;1.50;0.00;;;;;;;;5059077;28;8860;-77
2023/11/04 14:32:36;;;;;;;;;1.50;1.50;;;;;;;;5052613;28;8845;-79
2023/11/04 14:35:04;;;;;;;;;1.00;1.00;;;;;;;;5052762;28;8848;-77
2023/11/04 14:37:31;;;;;;;;;3.50;1.00;;;;;;;;5053636;28;8852;-79
2023/11/04 14:40:13;;;;;;;;;1.25;1.25;;;;;;;;5055097;28;8863;-77
2023/11/04 14:42:47;;;;;;;;;5.00;2.00;;;;;;;;5054955;28;8867;-81
2023/11/04 14:45:14;;;;;;;;;4.50;2.00;;;;;;;;5048637;28;8888;-77
2023/11/04 14:47:43;;;;;;;;;1.00;1.00;;;;;;;;5043649;28;8993;-78
2023/11/04 14:50:11;;;;;;;;;2.00;1.50;;;;;;;;5044220;28;8970;-78
2023/11/04 14:52:39;;;;;;;;;3.50;2.25;;;;;;;;5052676;28;8866;-75
2023/11/04 14:55:07;;;;;;;;;2.00;1.00;;;;;;;;5051661;28;8880;-78
2023/11/04 14:57:35;;;;;;;;;3.00;1.00;;;;;;;;5052192;28;8883;-77
2023/11/04 15:00:16;;;;;;;;;3.00;2.75;;;;;;;;5035442;28;8876;-76
2023/11/04 15:02:45;;;;;;;;;2.00;2.00;;;;;;;;5052751;28;8844;-76